createdAt,value
2019-02-22T00:01:16.470Z,124.70
2019-02-22T00:03:45.749Z,142.97
2019-02-22T00:06:15.037Z,198.03
2019-02-22T00:08:44.330Z,152.77
2019-02-22T00:11:13.672Z,144.20
2019-02-22T00:13:42.963Z,183.37
2019-02-22T00:16:13.240Z,160.07
2019-02-22T00:18:42.526Z,177.23
2019-02-22T00:21:12.893Z,145.13
2019-02-22T00:23:42.185Z,210.23
2019-02-22T00:26:11.482Z,171.40
2019-02-22T00:28:40.757Z,157.67
2019-02-22T00:31:10.386Z,168.97
2019-02-22T00:33:39.675Z,173.60
2019-02-22T00:36:09.017Z,159.90
2019-02-22T00:38:38.598Z,149.87
2019-02-22T00:41:07.881Z,191.47
2019-02-22T00:43:37.162Z,133.83
2019-02-22T00:46:06.445Z,160.47
2019-02-22T00:48:35.720Z,124.20
2019-02-22T00:51:05.025Z,128.83
2019-02-22T00:53:34.297Z,109.00
2019-02-22T00:56:03.580Z,120.40
2019-02-22T00:58:32.868Z,119.43
2019-02-22T01:01:02.168Z,144.10
2019-02-22T01:03:31.692Z,113.23
2019-02-22T01:06:00.992Z,131.87
2019-02-22T01:08:30.275Z,102.50
2019-02-22T01:10:59.556Z,120.57
2019-02-22T01:13:29.126Z,104.73
2019-02-22T01:15:58.397Z,98.53
2019-02-22T01:18:27.677Z,147.13
2019-02-22T01:20:56.985Z,165.53
2019-02-22T01:23:26.271Z,169.90
2019-02-22T01:25:55.615Z,163.37
2019-02-22T01:28:25.212Z,342.47
2019-02-22T01:30:54.505Z,280.57
2019-02-22T01:33:23.801Z,448.43
2019-02-22T01:35:53.327Z,207.17
2019-02-22T01:38:22.617Z,162.83
2019-02-22T01:40:51.907Z,363.77
2019-02-22T01:43:21.191Z,138.17
2019-02-22T01:45:50.653Z,138.83
2019-02-22T01:48:20.185Z,173.77
2019-02-22T01:50:49.534Z,171.67
2019-02-22T01:53:18.820Z,268.17
2019-02-22T01:55:48.097Z,175.67
2019-02-22T01:58:17.651Z,136.60
2019-02-22T02:00:46.936Z,142.93
2019-02-22T02:03:16.225Z,189.10
2019-02-22T02:05:45.505Z,200.17
2019-02-22T02:08:15.054Z,172.73
2019-02-22T02:10:53.838Z,174.53
2019-02-22T02:13:15.597Z,180.43
2019-02-22T02:15:44.949Z,143.43
2019-02-22T02:18:14.237Z,145.30
2019-02-22T02:20:43.890Z,241.03
2019-02-22T02:23:13.626Z,163.47
2019-02-22T02:25:42.911Z,164.43
2019-02-22T02:28:12.195Z,164.03
2019-02-22T02:30:41.473Z,190.67
2019-02-22T02:33:11.037Z,171.23
2019-02-22T02:35:40.327Z,151.23
2019-02-22T02:38:09.607Z,142.00
2019-02-22T02:40:38.900Z,140.30
2019-02-22T02:43:08.193Z,140.80
2019-02-22T02:45:37.473Z,148.67
2019-02-22T02:48:06.766Z,145.37
2019-02-22T02:50:36.045Z,120.60
2019-02-22T02:53:05.409Z,114.63
2019-02-22T02:55:35.356Z,126.80
2019-02-22T02:58:04.810Z,128.40
2019-02-22T03:00:34.096Z,119.43
2019-02-22T03:03:03.398Z,115.60
2019-02-22T03:05:51.682Z,116.87
2019-02-22T03:08:21.858Z,124.73
2019-02-22T03:10:52.105Z,114.30
2019-02-22T03:13:21.389Z,122.10
2019-02-22T03:15:50.954Z,123.13
2019-02-22T03:18:20.241Z,138.83
2019-02-22T03:20:49.525Z,116.00
2019-02-22T03:23:18.806Z,129.63
2019-02-22T03:25:48.169Z,108.03
2019-02-22T03:28:17.457Z,108.53
2019-02-22T03:30:46.738Z,121.50
2019-02-22T03:33:16.022Z,133.30
2019-02-22T03:35:45.309Z,121.03
2019-02-22T03:38:14.878Z,123.53
2019-02-22T03:40:44.164Z,111.80
2019-02-22T03:43:13.441Z,112.20
2019-02-22T03:45:42.729Z,124.70
2019-02-22T03:48:12.280Z,123.00
2019-02-22T03:50:41.566Z,127.83
2019-02-22T03:53:18.593Z,124.30
2019-02-22T03:55:47.891Z,123.80
2019-02-22T03:58:17.405Z,134.27
2019-02-22T04:00:46.691Z,134.53
2019-02-22T04:03:15.971Z,145.77
2019-02-22T04:05:45.254Z,144.87
2019-02-22T04:08:14.784Z,143.43
2019-02-22T04:10:44.061Z,163.00
2019-02-22T04:13:13.345Z,161.67
2019-02-22T04:15:42.809Z,154.63
2019-02-22T04:18:12.089Z,133.83
2019-02-22T04:20:41.689Z,155.00
2019-02-22T04:23:10.970Z,166.80
2019-02-22T04:25:40.271Z,179.93
2019-02-22T04:28:09.795Z,195.63
2019-02-22T04:30:39.412Z,152.67
2019-02-22T04:33:08.702Z,185.93
2019-02-22T04:35:37.997Z,156.60
2019-02-22T04:38:07.277Z,162.83
2019-02-22T04:40:36.566Z,183.93
2019-02-22T04:43:05.926Z,185.67
2019-02-22T04:45:35.212Z,219.40
2019-02-22T04:48:23.833Z,185.77
2019-02-22T04:50:53.126Z,160.67
2019-02-22T04:53:22.591Z,170.70
2019-02-22T04:55:51.875Z,145.57
2019-02-22T04:58:21.154Z,147.07
2019-02-22T05:00:50.436Z,155.73
2019-02-22T05:03:19.727Z,154.57
2019-02-22T05:05:49.018Z,140.10
2019-02-22T05:08:18.534Z,147.17
2019-02-22T05:10:47.823Z,132.27
2019-02-22T05:13:17.098Z,133.73
2019-02-22T05:15:46.389Z,138.53
2019-02-22T05:18:15.695Z,126.87
2019-02-22T05:20:44.989Z,141.20
2019-02-22T05:23:14.264Z,132.10
2019-02-22T05:25:43.564Z,142.60
2019-02-22T05:28:12.849Z,128.50
2019-02-22T05:30:42.129Z,135.07
2019-02-22T05:33:11.428Z,138.17
2019-02-22T05:35:40.709Z,120.80
2019-02-22T05:38:11.165Z,125.90
2019-02-22T05:40:40.721Z,124.40
2019-02-22T05:43:10.009Z,124.07
2019-02-22T05:45:39.293Z,119.80
2019-02-22T05:48:08.582Z,121.43
2019-02-22T05:50:37.866Z,119.47
2019-02-22T05:53:07.167Z,127.40
2019-02-22T05:55:36.725Z,119.07
2019-02-22T05:58:06.331Z,113.50
2019-02-22T06:00:35.616Z,117.97
2019-02-22T06:03:04.911Z,128.67
2019-02-22T06:05:34.445Z,113.00
2019-02-22T06:08:03.742Z,118.67
2019-02-22T06:10:33.021Z,111.37
2019-02-22T06:13:02.522Z,119.97
2019-02-22T06:15:31.801Z,122.33
2019-02-22T06:18:01.089Z,114.87
2019-02-22T06:20:30.369Z,133.30
2019-02-22T06:22:59.957Z,111.13
2019-02-22T06:25:29.238Z,118.63
2019-02-22T06:27:58.871Z,108.70
2019-02-22T06:30:28.140Z,120.97
2019-02-22T06:32:57.778Z,105.70
2019-02-22T06:35:27.378Z,106.77
2019-02-22T06:37:56.985Z,98.70
2019-02-22T06:40:26.273Z,103.57
2019-02-22T06:42:55.562Z,105.93
2019-02-22T06:45:24.845Z,125.47
2019-02-22T06:47:54.134Z,96.13
2019-02-22T06:50:33.597Z,104.23
2019-02-22T06:52:54.743Z,101.03
2019-02-22T06:55:24.345Z,103.67
2019-02-22T06:57:53.642Z,98.73
2019-02-22T07:00:22.918Z,93.00
2019-02-22T07:02:52.462Z,89.80
2019-02-22T07:05:21.741Z,85.03
2019-02-22T07:07:51.032Z,80.87
2019-02-22T07:10:20.309Z,85.70
2019-02-22T07:12:57.009Z,81.47
2019-02-22T07:15:25.517Z,85.00
2019-02-22T07:17:54.798Z,84.10
2019-02-22T07:20:24.083Z,99.67
2019-02-22T07:22:53.369Z,88.07
2019-02-22T07:25:22.928Z,100.20
2019-02-22T07:27:52.209Z,91.87
2019-02-22T07:30:21.489Z,87.70
2019-02-22T07:32:50.803Z,86.37
2019-02-22T07:35:20.066Z,78.60
2019-02-22T07:37:49.342Z,87.13
2019-02-22T07:40:19.957Z,76.47
2019-02-22T07:42:49.489Z,79.93
2019-02-22T07:45:19.070Z,73.20
2019-02-22T07:47:48.579Z,69.77
2019-02-22T07:50:17.861Z,60.50
2019-02-22T07:52:47.377Z,57.13
2019-02-22T07:55:16.667Z,55.73
2019-02-22T07:57:45.941Z,56.40
2019-02-22T08:00:15.869Z,60.00
2019-02-22T08:02:45.147Z,54.67
2019-02-22T08:05:14.704Z,58.03
2019-02-22T08:07:43.978Z,53.20
2019-02-22T08:10:13.277Z,52.33
2019-02-22T08:12:42.553Z,52.43
2019-02-22T08:15:11.849Z,61.47
2019-02-22T08:17:41.130Z,52.87
2019-02-22T08:20:10.447Z,52.27
2019-02-22T08:22:40.769Z,46.47
2019-02-22T08:25:10.342Z,46.60
2019-02-22T08:27:41.752Z,39.40
2019-02-22T08:30:11.288Z,22.63
2019-02-22T08:32:40.565Z,34.33
2019-02-22T08:35:10.822Z,38.87
2019-02-22T08:37:40.282Z,37.40
2019-02-22T08:40:10.718Z,35.33
2019-02-22T08:42:40.258Z,40.97
2019-02-22T08:45:10.385Z,34.53
2019-02-22T08:47:39.662Z,34.40
2019-02-22T08:50:09.096Z,34.60
2019-02-22T08:52:38.380Z,30.43
2019-02-22T08:55:07.837Z,35.10
2019-02-22T08:57:37.192Z,35.53
2019-02-22T09:00:10.582Z,39.00
2019-02-22T09:02:40.299Z,41.00
2019-02-22T09:05:10.005Z,42.80
2019-02-22T09:07:39.281Z,36.47
2019-02-22T09:10:12.093Z,35.17
2019-02-22T09:12:41.705Z,37.67
2019-02-22T09:15:11.521Z,34.13
2019-02-22T09:17:41.143Z,34.67
2019-02-22T09:20:12.345Z,37.30
2019-02-22T09:22:41.825Z,30.97
2019-02-22T09:25:11.359Z,31.20
2019-02-22T09:27:40.789Z,26.87
2019-02-22T09:30:13.428Z,20.17
2019-02-22T09:32:42.712Z,21.00
2019-02-22T09:35:12.220Z,17.13
2019-02-22T09:37:41.700Z,17.20
2019-02-22T09:40:14.573Z,20.80
2019-02-22T09:42:42.940Z,19.67
2019-02-22T09:45:12.773Z,18.00
2019-02-22T09:47:42.056Z,18.90
2019-02-22T09:50:13.495Z,21.23
2019-02-22T09:52:42.768Z,19.37
2019-02-22T09:55:13.738Z,15.23
2019-02-22T09:57:43.031Z,17.87
2019-02-22T10:00:14.059Z,23.00
2019-02-22T10:02:44.850Z,12.60
2019-02-22T10:05:14.678Z,14.50
2019-02-22T10:07:43.962Z,13.47
2019-02-22T10:10:14.209Z,11.47
2019-02-22T10:12:43.502Z,13.40
2019-02-22T10:15:12.774Z,11.73
2019-02-22T10:17:42.058Z,12.13
2019-02-22T10:20:11.341Z,9.47
2019-02-22T10:22:40.681Z,9.10
2019-02-22T10:25:09.949Z,9.10
2019-02-22T10:27:39.238Z,8.63
2019-02-22T10:30:11.156Z,6.77
2019-02-22T10:32:40.434Z,8.63
2019-02-22T10:35:09.782Z,9.33
2019-02-22T10:37:39.057Z,8.93
2019-02-22T10:40:09.475Z,7.87
2019-02-22T10:42:39.057Z,9.10
2019-02-22T10:45:09.866Z,7.63
2019-02-22T10:47:39.154Z,6.80
2019-02-22T10:50:09.364Z,6.47
2019-02-22T10:52:38.645Z,8.40
2019-02-22T10:55:10.453Z,7.20
2019-02-22T10:57:39.737Z,8.13
2019-02-22T11:00:12.723Z,10.47
2019-02-22T11:02:42.073Z,9.50
2019-02-22T11:05:11.548Z,9.73
2019-02-22T11:07:41.081Z,9.70
2019-02-22T11:10:11.984Z,7.27
2019-02-22T11:12:41.290Z,7.00
2019-02-22T11:15:12.244Z,7.33
2019-02-22T11:17:42.690Z,8.00
2019-02-22T11:20:12.422Z,7.30
2019-02-22T11:22:41.705Z,11.13
2019-02-22T11:25:14.112Z,10.57
2019-02-22T11:27:43.803Z,11.20
2019-02-22T11:30:15.729Z,8.83
2019-02-22T11:32:45.022Z,11.30
2019-02-22T11:35:14.293Z,8.13
2019-02-22T11:37:43.573Z,7.33
2019-02-22T11:40:12.909Z,7.30
2019-02-22T11:42:43.169Z,6.80
2019-02-22T11:45:12.453Z,6.47
2019-02-22T11:47:41.741Z,6.70
2019-02-22T11:50:12.269Z,5.40
2019-02-22T11:52:41.601Z,5.60
2019-02-22T11:55:11.733Z,5.97
2019-02-22T11:57:41.010Z,8.30
2019-02-22T12:00:16.907Z,7.07
2019-02-22T12:02:47.288Z,9.10
2019-02-22T12:05:16.876Z,6.90
2019-02-22T12:07:46.237Z,7.33
2019-02-22T12:10:15.814Z,7.17
2019-02-22T12:12:45.092Z,9.43
2019-02-22T12:15:14.852Z,6.87
2019-02-22T12:17:44.109Z,6.53
2019-02-22T12:20:13.426Z,6.50
2019-02-22T12:22:42.929Z,7.80
2019-02-22T12:25:13.150Z,7.53
2019-02-22T12:27:42.422Z,8.20
2019-02-22T12:30:13.650Z,8.70
2019-02-22T12:32:42.914Z,8.00
2019-02-22T12:35:12.272Z,9.83
2019-02-22T12:37:41.880Z,8.10
2019-02-22T12:40:11.917Z,7.27
2019-02-22T12:42:41.188Z,9.63
2019-02-22T12:45:11.907Z,8.43
2019-02-22T12:47:41.469Z,9.87
2019-02-22T12:50:13.998Z,7.50
2019-02-22T12:52:43.272Z,7.60
2019-02-22T12:55:12.853Z,8.03
2019-02-22T12:57:42.127Z,7.30
2019-02-22T13:00:17.115Z,8.50
2019-02-22T13:02:46.381Z,6.70
2019-02-22T13:05:21.664Z,7.30
2019-02-22T13:07:52.745Z,6.67
2019-02-22T13:10:22.231Z,8.40
2019-02-22T13:12:51.505Z,8.03
2019-02-22T13:15:20.791Z,7.87
2019-02-22T13:17:50.061Z,9.93
2019-02-22T13:20:19.681Z,8.80
2019-02-22T13:22:48.957Z,6.77
2019-02-22T13:25:18.237Z,8.87
2019-02-22T13:27:47.521Z,9.73
2019-02-22T13:30:17.773Z,6.87
2019-02-22T13:32:47.142Z,6.83
2019-02-22T13:35:16.826Z,7.03
2019-02-22T13:37:46.098Z,7.13
2019-02-22T13:40:17.617Z,8.00
2019-02-22T13:42:46.938Z,10.63
2019-02-22T13:45:26.132Z,6.83
2019-02-22T13:47:47.525Z,7.90
2019-02-22T13:50:17.955Z,10.60
2019-02-22T13:52:47.229Z,8.20
2019-02-22T13:55:16.519Z,9.30
2019-02-22T13:57:45.879Z,7.83
2019-02-22T14:00:17.681Z,9.67
2019-02-22T14:02:47.229Z,11.33
2019-02-22T14:05:17.068Z,9.50
2019-02-22T14:07:55.434Z,8.50
2019-02-22T14:10:26.080Z,10.83
2019-02-22T14:12:55.430Z,8.40
2019-02-22T14:15:24.706Z,7.43
2019-02-22T14:17:54.396Z,8.27
2019-02-22T14:20:23.660Z,12.33
2019-02-22T14:22:52.951Z,7.63
2019-02-22T14:25:22.212Z,8.03
2019-02-22T14:27:51.802Z,9.37
2019-02-22T14:30:21.412Z,8.70
2019-02-22T14:32:50.765Z,7.13
2019-02-22T14:35:20.032Z,10.80
2019-02-22T14:37:49.321Z,8.47
2019-02-22T14:40:19.665Z,9.20
2019-02-22T14:42:48.949Z,8.57
2019-02-22T14:45:18.222Z,8.70
2019-02-22T14:47:47.544Z,7.70
2019-02-22T14:50:17.850Z,10.30
2019-02-22T14:52:47.239Z,9.07
2019-02-22T14:55:17.657Z,7.33
2019-02-22T14:57:46.957Z,7.07
2019-02-22T15:00:20.966Z,7.20
2019-02-22T15:02:50.237Z,7.40
2019-02-22T15:05:20.479Z,8.77
2019-02-22T15:07:49.756Z,10.47
2019-02-22T15:10:19.239Z,9.60
2019-02-22T15:12:48.608Z,7.83
2019-02-22T15:15:22.288Z,7.80
2019-02-22T15:17:53.211Z,9.80
2019-02-22T15:20:22.481Z,11.80
2019-02-22T15:22:51.773Z,8.70
2019-02-22T15:25:21.045Z,10.00
2019-02-22T15:27:50.341Z,12.40
2019-02-22T15:30:19.970Z,10.17
2019-02-22T15:32:49.356Z,11.60
2019-02-22T15:35:19.222Z,11.33
2019-02-22T15:37:48.557Z,12.60
2019-02-22T15:40:17.838Z,10.37
2019-02-22T15:42:47.169Z,10.70
2019-02-22T15:45:18.930Z,10.53
2019-02-22T15:47:49.053Z,12.20
2019-02-22T15:50:19.711Z,12.27
2019-02-22T15:52:50.071Z,15.03
2019-02-22T15:55:20.879Z,9.20
2019-02-22T15:57:50.231Z,11.50
2019-02-22T16:00:35.429Z,13.50
2019-02-22T16:03:05.042Z,10.77
2019-02-22T16:05:35.968Z,10.80
2019-02-22T16:08:07.492Z,8.80
2019-02-22T16:10:36.687Z,13.33
2019-02-22T16:13:05.966Z,9.60
2019-02-22T16:15:36.586Z,12.00
2019-02-22T16:18:05.942Z,10.17
2019-02-22T16:20:35.233Z,10.80
2019-02-22T16:23:04.805Z,11.07
2019-02-22T16:25:34.369Z,14.20
2019-02-22T16:28:03.656Z,11.43
2019-02-22T16:30:35.187Z,10.90
2019-02-22T16:33:04.462Z,13.47
2019-02-22T16:35:33.751Z,11.80
2019-02-22T16:38:03.275Z,10.10
2019-02-22T16:40:32.620Z,9.63
2019-02-22T16:43:01.898Z,11.30
2019-02-22T16:45:31.191Z,12.07
2019-02-22T16:48:00.453Z,10.40
2019-02-22T16:50:30.278Z,10.60
2019-02-22T16:52:59.554Z,12.53
2019-02-22T16:55:29.087Z,14.03
2019-02-22T16:57:58.433Z,12.30
2019-02-22T17:00:27.892Z,13.10
2019-02-22T17:02:57.165Z,17.17
2019-02-22T17:05:26.670Z,14.33
2019-02-22T17:07:55.949Z,11.97
2019-02-22T17:10:25.239Z,12.20
2019-02-22T17:12:54.509Z,15.40
2019-02-22T17:15:23.805Z,16.20
2019-02-22T17:17:53.093Z,16.60
2019-02-22T17:20:22.421Z,25.63
2019-02-22T17:22:51.702Z,28.40
2019-02-22T17:25:23.730Z,28.00
2019-02-22T17:27:53.013Z,19.13
2019-02-22T17:30:24.314Z,20.80
2019-02-22T17:32:53.647Z,23.87
2019-02-22T17:35:22.952Z,16.20
2019-02-22T17:37:52.230Z,14.23
2019-02-22T17:40:27.197Z,16.60
2019-02-22T17:42:56.477Z,16.57
2019-02-22T17:45:25.770Z,18.00
2019-02-22T17:47:55.050Z,16.97
2019-02-22T17:50:24.345Z,19.53
2019-02-22T17:52:53.621Z,20.77
2019-02-22T17:55:23.087Z,21.47
2019-02-22T17:57:52.371Z,18.10
2019-02-22T18:00:24.380Z,19.43
2019-02-22T18:02:53.945Z,18.57
2019-02-22T18:05:23.297Z,24.40
2019-02-22T18:07:52.590Z,21.97
2019-02-22T18:10:21.868Z,20.73
2019-02-22T18:12:51.769Z,20.90
2019-02-22T18:15:21.119Z,23.30
2019-02-22T18:17:50.660Z,25.40
2019-02-22T18:20:19.937Z,22.77
2019-02-22T18:22:50.203Z,24.10
2019-02-22T18:25:19.474Z,19.93
2019-02-22T18:27:48.765Z,24.67
2019-02-22T18:30:22.855Z,26.20
2019-02-22T18:32:52.401Z,24.00
2019-02-22T18:35:21.685Z,24.20
2019-02-22T18:37:51.220Z,27.87
2019-02-22T18:40:22.822Z,27.53
2019-02-22T18:42:52.086Z,28.00
2019-02-22T18:45:21.674Z,24.17
2019-02-22T18:47:50.956Z,25.77
2019-02-22T18:50:20.225Z,28.00
2019-02-22T18:52:49.509Z,23.93
2019-02-22T18:55:18.851Z,34.33
2019-02-22T18:57:48.389Z,29.63
2019-02-22T19:00:20.760Z,26.77
2019-02-22T19:02:50.363Z,31.07
2019-02-22T19:05:19.632Z,24.77
2019-02-22T19:07:49.167Z,29.83
2019-02-22T19:10:19.077Z,31.80
2019-02-22T19:12:48.369Z,28.53
2019-02-22T19:15:17.889Z,29.43
2019-02-22T19:17:47.194Z,32.97
2019-02-22T19:20:18.268Z,32.43
2019-02-22T19:22:47.579Z,32.20
2019-02-22T19:25:17.203Z,31.97
2019-02-22T19:27:46.766Z,29.70
2019-02-22T19:30:21.249Z,27.67
2019-02-22T19:32:50.537Z,36.93
2019-02-22T19:35:19.804Z,33.40
2019-02-22T19:37:49.205Z,33.60
2019-02-22T19:40:23.574Z,34.07
2019-02-22T19:42:52.864Z,31.68
2019-02-22T19:45:22.217Z,37.33
2019-02-22T19:47:51.505Z,34.63
2019-02-22T19:50:20.782Z,35.30
2019-02-22T19:52:50.409Z,32.87
2019-02-22T19:55:20.234Z,37.42
2019-02-22T19:57:49.591Z,36.40
2019-02-22T20:00:19.875Z,33.80
2019-02-22T20:02:49.415Z,31.50
2019-02-22T20:05:18.781Z,32.47
2019-02-22T20:07:48.463Z,33.25
2019-02-22T20:10:19.221Z,30.07
2019-02-22T20:12:48.694Z,36.23
2019-02-22T20:15:18.304Z,36.87
2019-02-22T20:17:53.672Z,27.17
2019-02-22T20:20:19.957Z,29.40
2019-02-22T20:22:49.298Z,36.50
2019-02-22T20:25:19.661Z,37.20
2019-02-22T20:27:48.932Z,31.87
2019-02-22T20:30:19.165Z,31.77
2019-02-22T20:32:48.459Z,31.68
2019-02-22T20:35:28.072Z,30.70
2019-02-22T20:37:57.421Z,36.55
2019-02-22T20:40:26.725Z,36.70
2019-02-22T20:42:56.297Z,35.55
2019-02-22T20:45:25.591Z,35.30
2019-02-22T20:48:04.753Z,29.98
2019-02-22T20:50:25.851Z,31.65
2019-02-22T20:52:55.437Z,33.05
2019-02-22T20:55:24.729Z,28.52
2019-02-22T20:57:54.241Z,33.40
2019-02-22T21:00:25.493Z,29.18
2019-02-22T21:02:54.773Z,27.17
2019-02-22T21:05:24.057Z,30.88
2019-02-22T21:07:53.338Z,36.13
2019-02-22T21:10:23.208Z,29.45
2019-02-22T21:12:52.556Z,32.08
2019-02-22T21:15:21.838Z,29.98
2019-02-22T21:17:51.117Z,30.23
2019-02-22T21:20:22.316Z,27.37
2019-02-22T21:22:51.593Z,29.72
2019-02-22T21:25:20.882Z,29.57
2019-02-22T21:27:50.161Z,31.82
2019-02-22T21:30:22.300Z,27.67
2019-02-22T21:32:51.580Z,30.40
2019-02-22T21:35:20.865Z,30.43
2019-02-22T21:37:50.594Z,27.58
2019-02-22T21:40:19.978Z,26.85
2019-02-22T21:42:49.546Z,30.52
2019-02-22T21:45:18.836Z,35.78
2019-02-22T21:47:54.786Z,34.75
2019-02-22T21:50:19.108Z,29.57
2019-02-22T21:52:48.385Z,30.45
2019-02-22T21:55:17.681Z,33.73
2019-02-22T21:57:46.956Z,26.93
2019-02-22T22:00:27.862Z,33.33
2019-02-22T22:02:57.141Z,32.65
2019-02-22T22:05:26.470Z,37.00
2019-02-22T22:07:55.768Z,32.93
2019-02-22T22:10:25.369Z,35.10
2019-02-22T22:12:54.652Z,33.70
2019-02-22T22:15:24.277Z,38.35
2019-02-22T22:17:53.891Z,30.57
2019-02-22T22:20:23.177Z,29.95
2019-02-22T22:22:52.797Z,37.38
2019-02-22T22:25:23.160Z,29.37
2019-02-22T22:27:52.441Z,30.65
2019-02-22T22:30:21.850Z,30.80
2019-02-22T22:32:52.626Z,30.00
2019-02-22T22:35:22.163Z,32.38
2019-02-22T22:37:52.501Z,28.75
2019-02-22T22:40:22.934Z,29.35
2019-02-22T22:42:52.342Z,31.02
2019-02-22T22:45:21.719Z,32.80
2019-02-22T22:47:51.438Z,35.88
2019-02-22T22:50:21.048Z,27.65
2019-02-22T22:52:50.660Z,26.68
2019-02-22T22:55:19.937Z,30.48
2019-02-22T22:57:49.561Z,27.02
2019-02-22T23:00:29.309Z,26.17
2019-02-22T23:03:00.229Z,28.98
2019-02-22T23:05:29.749Z,26.00
2019-02-22T23:07:59.045Z,25.27
2019-02-22T23:10:29.397Z,26.87
2019-02-22T23:12:58.688Z,24.07
2019-02-22T23:15:27.965Z,24.10
2019-02-22T23:17:57.597Z,25.12
2019-02-22T23:20:26.864Z,25.88
2019-02-22T23:22:56.161Z,23.30
2019-02-22T23:25:25.441Z,23.90
2019-02-22T23:27:54.737Z,26.25
2019-02-22T23:30:24.012Z,27.32
2019-02-22T23:32:53.437Z,23.47
2019-02-22T23:35:23.028Z,22.17
2019-02-22T23:37:52.325Z,20.50
2019-02-22T23:40:21.916Z,18.75
2019-02-22T23:42:51.443Z,20.50
2019-02-22T23:45:20.727Z,23.73
2019-02-22T23:47:50.033Z,21.33
2019-02-22T23:50:19.307Z,29.57
2019-02-22T23:52:48.941Z,19.37
2019-02-22T23:55:18.222Z,21.65
2019-02-22T23:57:47.505Z,20.62
